Time;durP1;ratioP1;P1;durP2;ratioP2;P2;SDS_P1;SDS_P2;PMS_P1;PMS_P2;Temp;Humidity;BMP_temperature;BMP_pressure;BME280_temperature;BME280_humidity;BME280_pressure;Samples;Min_cycle;Max_cycle;Signal;HPM_P1;HPM_P2
2022/01/25 00:25:30;;;;;;;13.88;12.48;;;2.80;99.90;;;;;;5033172;28;20091;-74
2022/01/25 00:28:16;;;;;;;13.10;11.77;;;2.80;99.90;;;;;;5032766;28;20017;-74
2022/01/25 00:33:30;;;;;;;13.70;12.25;;;2.70;99.90;;;;;;5033069;28;20059;-75
2022/01/25 00:35:56;;;;;;;14.40;12.27;;;2.70;99.90;;;;;;5017532;28;20030;-78
2022/01/25 00:38:21;;;;;;;13.90;12.38;;;2.80;99.90;;;;;;5011469;28;20065;-77
2022/01/25 00:40:47;;;;;;;13.60;12.18;;;2.80;99.90;;;;;;5025914;28;20080;-77
2022/01/25 00:43:13;;;;;;;18.17;13.63;;;2.80;99.90;;;;;;5012743;28;20102;-76
2022/01/25 00:45:38;;;;;;;14.45;12.95;;;2.90;99.90;;;;;;5012771;28;20026;-77
2022/01/25 00:48:06;;;;;;;13.02;11.50;;;3.00;99.90;;;;;;5012576;28;20496;-76
2022/01/25 00:50:38;;;;;;;13.93;12.55;;;2.70;99.90;;;;;;5012427;28;20025;-75
2022/01/25 00:55:31;;;;;;;15.82;13.70;;;2.70;99.90;;;;;;5012572;28;20377;-78
2022/01/25 00:57:58;;;;;;;14.98;13.45;;;2.70;99.90;;;;;;5012566;28;20026;-76
2022/01/25 01:00:25;;;;;;;14.55;13.05;;;2.70;99.90;;;;;;5012243;28;20121;-78
2022/01/25 01:02:54;;;;;;;15.43;13.27;;;2.80;99.90;;;;;;5012557;28;20076;-77
2022/01/25 01:05:20;;;;;;;16.05;14.40;;;2.70;99.90;;;;;;5012526;28;20014;-76
2022/01/25 01:07:46;;;;;;;15.25;13.57;;;2.80;99.90;;;;;;5014907;28;20026;-77
2022/01/25 01:10:16;;;;;;;15.15;13.65;;;2.80;99.90;;;;;;5031073;28;20037;-78
2022/01/25 01:13:25;;;;;;;15.15;13.30;;;2.80;99.90;;;;;;5020947;28;20712;-78
2022/01/25 01:16:02;;;;;;;14.95;13.05;;;2.80;99.90;;;;;;5023343;28;20387;-77
2022/01/25 01:29:48;;;;;;;12.73;11.43;;;2.60;99.90;;;;;;5032009;28;20047;-75
2022/01/25 01:32:48;;;;;;;13.05;11.68;;;2.50;99.90;;;;;;5030321;28;20022;-75
2022/01/25 01:38:13;;;;;;;12.55;11.18;;;2.50;99.90;;;;;;5012272;28;20030;-76
2022/01/25 01:48:50;;;;;;;13.27;11.57;;;2.50;99.90;;;;;;5018263;28;20472;-75
2022/01/25 01:51:24;;;;;;;14.57;12.23;;;2.60;99.90;;;;;;5011563;28;20080;-75
2022/01/25 01:53:50;;;;;;;13.48;12.07;;;2.60;99.90;;;;;;5010457;28;20543;-75
2022/01/25 01:56:15;;;;;;;13.95;11.57;;;2.80;99.90;;;;;;5010401;28;20030;-75
2022/01/25 01:58:41;;;;;;;12.80;11.50;;;2.70;99.90;;;;;;5011678;28;20037;-75
2022/01/25 02:01:11;;;;;;;13.20;11.80;;;2.60;99.90;;;;;;5010212;28;20026;-75
2022/01/25 02:03:37;;;;;;;13.82;12.32;;;2.60;99.90;;;;;;5011706;28;20022;-75
2022/01/25 02:06:03;;;;;;;13.48;12.10;;;2.60;99.90;;;;;;5011901;28;20040;-76
2022/01/25 02:08:28;;;;;;;15.57;13.48;;;2.70;99.90;;;;;;5010250;28;20076;-77
2022/01/25 02:10:56;;;;;;;16.15;13.68;;;2.70;99.90;;;;;;5011442;28;20026;-77
2022/01/25 02:13:24;;;;;;;13.70;12.27;;;2.70;99.90;;;;;;5011609;28;20061;-78
2022/01/25 02:15:51;;;;;;;14.52;12.82;;;2.60;99.90;;;;;;5011692;28;20439;-77
2022/01/25 02:23:46;;;;;;;14.80;13.20;;;2.60;99.90;;;;;;5011900;28;20033;-75
2022/01/25 02:26:12;;;;;;;16.92;14.27;;;2.50;99.90;;;;;;5011678;28;20034;-76
2022/01/25 02:28:41;;;;;;;16.05;13.00;;;2.50;99.90;;;;;;5011529;28;20085;-75
2022/01/25 02:31:10;;;;;;;19.08;16.27;;;2.50;99.90;;;;;;5011282;28;20030;-75
2022/01/25 02:33:36;;;;;;;19.38;17.05;;;2.50;99.90;;;;;;5011175;28;20515;-75
2022/01/25 02:36:05;;;;;;;17.27;15.45;;;2.50;99.90;;;;;;5011759;28;20041;-76
2022/01/25 02:38:33;;;;;;;18.55;16.50;;;2.60;99.90;;;;;;5013044;28;20034;-76
2022/01/25 02:40:59;;;;;;;21.13;18.17;;;2.60;99.90;;;;;;5028044;28;20048;-74
2022/01/25 02:43:27;;;;;;;19.75;17.67;;;2.60;99.90;;;;;;5015112;28;20096;-76
2022/01/25 02:46:22;;;;;;;19.60;17.58;;;2.60;99.90;;;;;;5016981;28;20370;-77
2022/01/25 02:49:04;;;;;;;19.77;17.10;;;2.60;99.90;;;;;;5019021;28;20026;-75
2022/01/25 02:51:48;;;;;;;21.80;18.70;;;2.60;99.90;;;;;;5013494;28;20116;-75
2022/01/25 02:54:15;;;;;;;20.90;17.77;;;2.60;99.90;;;;;;5014864;28;20029;-75
2022/01/25 02:56:43;;;;;;;26.30;23.50;;;2.60;99.90;;;;;;5033016;28;20041;-75
2022/01/25 02:59:10;;;;;;;28.70;25.67;;;2.50;99.90;;;;;;5027138;28;20017;-75
2022/01/25 03:01:36;;;;;;;26.45;21.08;;;2.50;99.90;;;;;;5015592;28;20050;-75
2022/01/25 03:04:04;;;;;;;23.30;20.30;;;2.60;99.90;;;;;;5017148;28;20526;-77
2022/01/25 03:06:30;;;;;;;24.88;22.17;;;2.50;99.90;;;;;;5033203;28;20044;-78
2022/01/25 03:08:55;;;;;;;24.15;21.60;;;2.50;99.90;;;;;;5014947;28;20021;-76
2022/01/25 03:11:23;;;;;;;24.13;21.13;;;2.50;99.90;;;;;;5014351;28;20084;-77
2022/01/25 03:13:51;;;;;;;29.83;26.67;;;2.50;99.90;;;;;;5013445;28;20117;-76
2022/01/25 03:16:36;;;;;;;24.25;21.38;;;2.50;99.90;;;;;;5014425;28;20200;-77
2022/01/25 03:19:28;;;;;;;19.85;17.45;;;2.60;99.90;;;;;;5014507;28;20053;-76
2022/01/25 03:21:51;;;;;;;19.83;17.42;;;2.50;99.90;;;;;;5020006;28;20064;-76
2022/01/25 03:24:16;;;;;;;22.75;18.83;;;2.50;99.90;;;;;;5021586;28;20057;-77
2022/01/25 03:26:42;;;;;;;21.10;18.35;;;2.40;99.90;;;;;;5033922;28;20491;-77
2022/01/25 03:29:07;;;;;;;36.97;28.65;;;2.30;99.90;;;;;;5023045;28;20113;-77
2022/01/25 03:31:33;;;;;;;33.85;25.52;;;2.20;99.90;;;;;;5012670;28;20025;-77
2022/01/25 03:34:00;;;;;;;26.63;22.38;;;2.10;99.90;;;;;;5014390;28;20092;-77
2022/01/25 03:36:26;;;;;;;23.73;19.67;;;2.30;99.90;;;;;;5013300;28;20033;-77
2022/01/25 03:38:52;;;;;;;22.42;18.92;;;2.20;99.90;;;;;;5014320;28;20045;-76
2022/01/25 03:41:18;;;;;;;20.77;17.80;;;2.20;99.90;;;;;;5012734;28;20113;-75
2022/01/25 03:43:50;;;;;;;22.13;18.13;;;2.40;99.90;;;;;;5014081;28;20362;-76
2022/01/25 03:46:24;;;;;;;25.55;19.08;;;2.40;99.90;;;;;;5017879;28;20025;-75
2022/01/25 03:51:34;;;;;;;21.67;18.65;;;2.40;99.90;;;;;;5014034;28;20099;-76
2022/01/25 03:54:00;;;;;;;22.33;18.90;;;2.30;99.90;;;;;;5012482;28;20551;-76
2022/01/25 03:56:25;;;;;;;23.05;19.25;;;2.40;99.90;;;;;;5012423;28;20030;-77
2022/01/25 03:58:51;;;;;;;20.90;18.17;;;2.40;99.90;;;;;;5019157;28;20021;-78
2022/01/25 04:01:18;;;;;;;21.70;19.38;;;2.40;99.90;;;;;;5028556;28;20045;-78
2022/01/25 04:03:54;;;;;;;22.40;18.48;;;2.40;99.90;;;;;;5032200;28;20022;-77
2022/01/25 04:06:21;;;;;;;20.80;17.67;;;2.40;99.90;;;;;;5033385;28;20017;-77
2022/01/25 04:08:47;;;;;;;20.75;17.83;;;2.50;99.90;;;;;;5013733;28;20742;-76
2022/01/25 04:11:12;;;;;;;20.92;18.65;;;2.60;99.90;;;;;;5013722;28;20115;-77
2022/01/25 04:13:38;;;;;;;20.65;18.45;;;2.50;99.90;;;;;;5012655;28;20365;-78
2022/01/25 04:16:11;;;;;;;19.50;17.40;;;2.40;99.90;;;;;;5012042;28;20033;-77
2022/01/25 04:18:52;;;;;;;20.20;18.08;;;2.40;99.90;;;;;;5018963;28;20372;-78
2022/01/25 04:21:41;;;;;;;23.50;18.95;;;2.30;99.90;;;;;;5030367;28;20033;-78
2022/01/25 04:26:54;;;;;;;20.95;18.67;;;2.30;99.90;;;;;;5021742;28;20032;-78
2022/01/25 04:29:20;;;;;;;21.98;19.35;;;2.30;99.90;;;;;;5033322;28;20030;-76
2022/01/25 04:31:45;;;;;;;23.30;19.42;;;2.40;99.90;;;;;;5031519;28;20044;-77
2022/01/25 04:34:24;;;;;;;22.45;19.83;;;2.40;99.90;;;;;;5031937;28;20021;-77
2022/01/25 04:50:44;;;;;;;20.83;17.73;;;2.20;99.90;;;;;;5012396;28;20029;-75
2022/01/25 04:53:20;;;;;;;19.15;17.10;;;2.30;99.90;;;;;;5012561;28;20427;-74
2022/01/25 04:56:07;;;;;;;18.08;15.82;;;2.00;99.90;;;;;;5012647;28;20025;-75
2022/01/25 04:58:41;;;;;;;;;;;1.90;99.90;;;;;;5011666;28;20037;-75
2022/01/25 05:01:07;;;;;;;22.15;17.33;;;2.00;99.90;;;;;;5011587;28;19909;-75
2022/01/25 05:03:52;;;;;;;20.67;16.98;;;1.90;99.90;;;;;;5012561;28;20088;-77
2022/01/25 05:06:18;;;;;;;18.08;16.15;;;1.90;99.90;;;;;;5011700;28;20392;-77
2022/01/25 05:08:49;;;;;;;20.80;16.77;;;1.90;99.90;;;;;;5011100;28;20025;-77
2022/01/25 05:11:31;;;;;;;20.15;16.85;;;1.90;99.90;;;;;;5012236;28;20491;-78
2022/01/25 05:14:19;;;;;;;19.30;17.02;;;1.90;99.90;;;;;;5019257;28;20048;-76
2022/01/25 05:24:24;;;;;;;21.35;18.45;;;1.70;99.90;;;;;;5030850;28;20029;-74
2022/01/25 05:26:49;;;;;;;22.00;19.05;;;1.70;99.90;;;;;;5011965;28;20221;-75
2022/01/25 05:29:15;;;;;;;39.70;31.50;;;1.60;99.90;;;;;;5026129;28;20079;-74
2022/01/25 05:31:41;;;;;;;43.40;31.55;;;1.70;99.90;;;;;;5023245;28;20022;-74
2022/01/25 05:34:09;;;;;;;36.15;28.10;;;1.70;99.90;;;;;;5012588;28;20021;-75
2022/01/25 05:36:36;;;;;;;34.35;27.15;;;1.80;99.90;;;;;;5023187;28;20021;-75
2022/01/25 05:39:09;;;;;;;31.92;26.52;;;1.90;99.90;;;;;;5026106;28;20034;-74
2022/01/25 05:41:35;;;;;;;27.15;23.58;;;1.80;99.90;;;;;;5031554;28;20114;-74
2022/01/25 05:44:21;;;;;;;28.67;21.67;;;1.80;99.90;;;;;;5018583;28;20732;-74
2022/01/25 05:47:05;;;;;;;26.70;21.53;;;1.70;99.90;;;;;;5029492;28;20017;-75
2022/01/25 05:49:32;;;;;;;29.08;21.58;;;1.30;99.90;;;;;;5019124;28;20252;-74
2022/01/25 05:51:58;;;;;;;28.90;22.98;;;1.30;99.90;;;;;;5018095;28;20374;-75
2022/01/25 05:54:23;;;;;;;28.10;21.98;;;1.30;99.90;;;;;;5024589;28;20117;-74
2022/01/25 05:56:49;;;;;;;24.85;22.15;;;1.30;99.90;;;;;;5023924;28;20025;-74
2022/01/25 05:59:14;;;;;;;26.80;21.42;;;1.40;99.90;;;;;;5018780;28;20021;-74
2022/01/25 06:01:40;;;;;;;28.13;22.52;;;1.50;99.90;;;;;;5018123;28;20033;-76
2022/01/25 06:04:07;;;;;;;26.45;21.40;;;1.40;99.90;;;;;;5023356;28;20495;-76
2022/01/25 06:06:32;;;;;;;29.17;22.85;;;1.40;99.90;;;;;;5025129;28;20357;-77
2022/01/25 06:08:59;;;;;;;29.70;23.60;;;1.50;99.90;;;;;;5018868;28;20032;-76
2022/01/25 06:11:25;;;;;;;28.92;25.20;;;1.60;99.90;;;;;;5017959;28;20026;-76
2022/01/25 06:13:52;;;;;;;29.48;24.67;;;;;;;;;;5027088;28;20022;-76
2022/01/25 06:16:17;;;;;;;32.45;23.88;;;1.60;99.90;;;;;;5027610;28;20029;-77
2022/01/25 06:18:44;;;;;;;33.30;26.27;;;1.60;99.90;;;;;;5022602;28;20438;-76
2022/01/25 06:21:09;;;;;;;30.67;24.42;;;1.50;99.90;;;;;;5021811;28;20511;-76
2022/01/25 06:23:35;;;;;;;30.08;23.65;;;1.50;99.90;;;;;;5028293;28;20053;-76
2022/01/25 06:26:02;;;;;;;25.88;22.90;;;1.50;99.90;;;;;;5028768;28;20026;-74
2022/01/25 06:28:28;;;;;;;27.40;23.27;;;1.50;99.90;;;;;;5022584;28;20022;-74
2022/01/25 06:30:54;;;;;;;28.23;22.70;;;1.50;99.90;;;;;;5020386;28;20033;-74
2022/01/25 06:33:19;;;;;;;27.27;24.38;;;1.50;99.90;;;;;;5028423;28;20076;-74
2022/01/25 06:35:46;;;;;;;25.88;23.08;;;1.40;99.90;;;;;;5027354;28;20098;-74
2022/01/25 06:38:13;;;;;;;30.92;23.70;;;1.30;99.90;;;;;;5020907;28;20029;-74
2022/01/25 06:40:38;;;;;;;27.33;23.00;;;1.20;99.90;;;;;;5032350;28;20025;-76
2022/01/25 06:43:04;;;;;;;27.65;24.25;;;1.20;99.90;;;;;;5023013;28;20386;-75
2022/01/25 06:45:30;;;;;;;25.00;21.52;;;1.30;99.90;;;;;;5020497;28;20036;-75
2022/01/25 06:47:56;;;;;;;28.88;24.65;;;1.30;99.90;;;;;;5034860;28;20455;-75
2022/01/25 06:50:23;;;;;;;29.40;24.00;;;1.40;99.90;;;;;;5020195;28;20550;-75
2022/01/25 06:52:49;;;;;;;28.80;23.77;;;1.40;99.90;;;;;;5025521;28;20030;-75
2022/01/25 06:55:17;;;;;;;31.13;22.40;;;1.40;99.90;;;;;;5028225;28;20040;-74
2022/01/25 06:57:44;;;;;;;29.75;22.85;;;1.40;99.90;;;;;;5023190;28;20087;-74
2022/01/25 07:00:12;;;;;;;26.80;21.75;;;1.40;99.90;;;;;;5018187;28;20022;-74
2022/01/25 07:02:38;;;;;;;27.63;22.65;;;1.50;99.90;;;;;;5023178;28;20527;-73
2022/01/25 07:05:05;;;;;;;26.42;22.30;;;1.60;99.90;;;;;;5019929;28;20121;-73
2022/01/25 07:07:30;;;;;;;26.52;20.55;;;1.40;99.90;;;;;;5034900;28;20426;-73
2022/01/25 07:09:57;;;;;;;24.25;19.75;;;1.50;99.90;;;;;;5019859;28;20030;-73
2022/01/25 07:12:23;;;;;;;23.73;20.35;;;1.50;99.90;;;;;;5033987;28;20041;-74
2022/01/25 07:14:50;;;;;;;28.48;22.45;;;1.50;99.90;;;;;;5021224;28;20120;-75
2022/01/25 07:17:15;;;;;;;22.95;19.45;;;1.60;99.90;;;;;;5025983;28;20109;-73
2022/01/25 07:19:41;;;;;;;26.00;19.88;;;1.60;99.90;;;;;;5027804;28;20535;-73
2022/01/25 07:22:06;;;;;;;24.35;19.65;;;1.40;99.90;;;;;;5022648;28;20041;-74
2022/01/25 07:24:32;;;;;;;23.13;19.85;;;1.40;99.90;;;;;;5031835;28;20156;-74
2022/01/25 07:26:58;;;;;;;23.45;20.17;;;1.50;99.90;;;;;;5023115;28;20499;-74
2022/01/25 07:29:23;;;;;;;24.95;20.30;;;1.60;99.90;;;;;;5020748;28;20091;-75
2022/01/25 07:31:49;;;;;;;22.90;19.08;;;1.40;99.90;;;;;;5025917;28;20018;-75
2022/01/25 07:34:14;;;;;;;22.15;18.40;;;1.40;99.90;;;;;;5026825;28;20014;-75
2022/01/25 07:36:42;;;;;;;24.25;19.25;;;1.50;99.90;;;;;;5022432;28;20047;-75
2022/01/25 07:39:09;;;;;;;23.38;19.52;;;1.60;99.90;;;;;;5017477;28;20037;-76
2022/01/25 07:41:34;;;;;;;21.73;18.50;;;1.50;99.90;;;;;;5021175;28;20032;-75
2022/01/25 07:44:00;;;;;;;23.50;19.50;;;1.50;99.90;;;;;;5020420;28;20030;-77
2022/01/25 07:46:25;;;;;;;25.02;19.75;;;1.60;99.90;;;;;;5024338;28;20025;-77
2022/01/25 07:48:51;;;;;;;26.20;23.20;;;1.60;99.90;;;;;;5022004;28;20025;-77
2022/01/25 07:51:18;;;;;;;30.90;25.52;;;1.50;99.90;;;;;;5022126;28;20479;-76
2022/01/25 07:53:44;;;;;;;23.50;20.30;;;1.50;99.90;;;;;;5032166;28;20052;-75
2022/01/25 07:56:10;;;;;;;26.05;20.95;;;1.50;99.90;;;;;;5020616;28;20056;-76
2022/01/25 07:58:36;;;;;;;27.30;21.75;;;1.50;99.90;;;;;;5027634;28;20076;-75
2022/01/25 08:01:02;;;;;;;41.03;31.13;;;1.50;99.90;;;;;;5033263;28;20026;-74
2022/01/25 08:03:27;;;;;;;32.78;26.58;;;1.50;99.90;;;;;;5020129;28;20388;-75
2022/01/25 08:05:53;;;;;;;56.17;42.20;;;1.60;99.90;;;;;;5025558;28;20028;-75
2022/01/25 08:08:19;;;;;;;31.88;25.08;;;1.50;99.90;;;;;;5025724;28;20043;-75
2022/01/25 08:10:44;;;;;;;32.90;25.10;;;1.60;99.90;;;;;;5021030;28;20022;-75
2022/01/25 08:13:10;;;;;;;30.90;24.70;;;1.60;99.90;;;;;;5019907;28;20025;-75
2022/01/25 08:15:35;;;;;;;27.77;23.92;;;1.60;99.90;;;;;;5025976;28;20079;-75
2022/01/25 08:18:01;;;;;;;35.97;29.50;;;1.60;99.90;;;;;;5026999;28;20049;-76
2022/01/25 08:20:26;;;;;;;30.23;24.95;;;1.80;99.90;;;;;;5025838;28;20037;-76
2022/01/25 08:22:52;;;;;;;27.48;22.83;;;1.50;99.90;;;;;;5025517;28;20026;-77
2022/01/25 08:25:19;;;;;;;31.98;26.05;;;1.60;99.90;;;;;;5020039;28;20022;-76
2022/01/25 08:27:45;;;;;;;30.35;25.10;;;1.70;99.90;;;;;;5032972;28;20016;-76
2022/01/25 08:30:11;;;;;;;39.15;28.30;;;1.90;99.90;;;;;;5032736;28;20029;-76
2022/01/25 08:32:37;;;;;;;31.35;25.63;;;1.80;99.90;;;;;;5032507;28;20029;-76
2022/01/25 08:35:03;;;;;;;30.52;23.35;;;1.80;99.90;;;;;;5027151;28;20040;-76
2022/01/25 08:37:28;;;;;;;50.03;35.67;;;1.80;99.90;;;;;;5019533;28;20026;-75
2022/01/25 08:39:54;;;;;;;29.70;23.67;;;1.80;99.90;;;;;;5032145;28;20038;-75
2022/01/25 08:42:20;;;;;;;33.22;24.73;;;1.80;99.90;;;;;;5017882;28;20046;-76
2022/01/25 08:44:45;;;;;;;34.75;26.88;;;1.90;99.90;;;;;;5032679;28;20383;-76
2022/01/25 08:47:11;;;;;;;32.20;23.77;;;1.80;99.90;;;;;;5019240;28;20022;-76
2022/01/25 08:49:38;;;;;;;31.73;25.83;;;1.80;99.90;;;;;;5032319;28;20021;-75
2022/01/25 08:52:04;;;;;;;32.13;27.38;;;1.90;99.90;;;;;;5031411;28;20113;-76
2022/01/25 08:54:31;;;;;;;31.95;24.75;;;1.80;99.90;;;;;;5020334;28;20025;-74
2022/01/25 08:56:58;;;;;;;26.20;23.15;;;1.90;99.90;;;;;;5031033;28;20070;-74
2022/01/25 08:59:24;;;;;;;27.23;22.38;;;1.90;99.90;;;;;;5024583;28;20047;-74
2022/01/25 09:01:50;;;;;;;33.38;25.85;;;2.00;99.90;;;;;;5015403;28;20105;-74
2022/01/25 09:04:16;;;;;;;30.58;24.42;;;1.90;99.90;;;;;;5034336;28;20040;-74
2022/01/25 09:06:41;;;;;;;30.45;24.05;;;1.80;99.90;;;;;;5030926;28;20462;-74
2022/01/25 09:09:09;;;;;;;31.40;25.45;;;1.80;99.90;;;;;;5024624;28;20111;-75
2022/01/25 09:11:36;;;;;;;28.33;24.80;;;1.90;99.90;;;;;;5024313;28;20381;-74
2022/01/25 09:14:03;;;;;;;30.23;25.08;;;1.80;99.90;;;;;;5025535;28;20495;-74
2022/01/25 09:16:29;;;;;;;30.52;25.60;;;1.80;99.90;;;;;;5031390;28;20055;-75
2022/01/25 09:18:54;;;;;;;30.25;24.35;;;1.90;99.90;;;;;;5022918;28;20571;-75
2022/01/25 09:21:20;;;;;;;37.28;28.45;;;1.90;99.90;;;;;;5024217;28;20439;-75
2022/01/25 09:23:45;;;;;;;36.22;26.48;;;1.90;99.90;;;;;;5019782;28;20018;-75
2022/01/25 09:26:11;;;;;;;33.97;24.58;;;1.80;99.90;;;;;;5018826;28;20041;-76
2022/01/25 09:28:36;;;;;;;27.42;22.85;;;1.80;99.90;;;;;;5023043;28;20022;-76
2022/01/25 09:31:02;;;;;;;32.38;24.65;;;1.70;99.90;;;;;;5023953;28;20464;-77
2022/01/25 09:33:28;;;;;;;34.88;27.25;;;1.90;99.90;;;;;;5019580;28;20519;-77
2022/01/25 09:35:55;;;;;;;35.08;24.60;;;2.00;99.90;;;;;;5017447;28;20069;-76
2022/01/25 09:38:22;;;;;;;34.88;26.67;;;2.00;99.90;;;;;;5022605;28;20030;-76
2022/01/25 09:40:49;;;;;;;30.23;23.70;;;1.90;99.90;;;;;;5016849;28;20079;-77
2022/01/25 09:43:16;;;;;;;36.58;25.90;;;2.10;99.90;;;;;;5022867;28;20376;-77
2022/01/25 09:45:42;;;;;;;32.92;25.52;;;1.90;99.90;;;;;;5027956;28;20032;-75
2022/01/25 09:48:09;;;;;;;36.03;26.40;;;2.00;99.90;;;;;;5020734;28;20022;-75
2022/01/25 09:50:36;;;;;;;30.45;24.67;;;2.10;99.90;;;;;;5015355;28;20026;-75
2022/01/25 09:53:04;;;;;;;30.95;24.50;;;2.20;99.90;;;;;;5020354;28;20029;-75
2022/01/25 09:55:33;;;;;;;34.55;25.02;;;2.20;99.90;;;;;;5028360;28;20026;-75
2022/01/25 09:57:59;;;;;;;32.80;27.08;;;2.10;99.90;;;;;;5022679;28;20021;-76
2022/01/25 10:00:30;;;;;;;33.22;25.25;;;1.90;99.90;;;;;;5016779;28;20033;-77
2022/01/25 10:03:16;;;;;;;33.88;25.92;;;2.10;99.90;;;;;;5020402;28;20663;-76
2022/01/25 10:05:45;;;;;;;39.00;28.80;;;2.10;99.90;;;;;;5017929;28;20032;-76
2022/01/25 10:08:15;;;;;;;34.67;26.83;;;2.30;99.90;;;;;;5018009;28;20029;-76
2022/01/25 10:10:44;;;;;;;32.25;25.63;;;2.30;99.90;;;;;;5022416;28;20022;-76
2022/01/25 10:13:22;;;;;;;30.35;24.42;;;2.40;99.90;;;;;;5027627;28;20021;-77
2022/01/25 10:15:50;;;;;;;36.90;26.67;;;2.50;99.90;;;;;;5022988;28;20052;-75
2022/01/25 10:18:16;;;;;;;31.90;25.10;;;2.40;99.90;;;;;;5018727;28;20036;-75
2022/01/25 10:20:46;;;;;;;34.67;24.02;;;2.40;99.90;;;;;;5021907;28;20381;-76
2022/01/25 10:23:18;;;;;;;29.80;23.60;;;2.50;99.90;;;;;;5023538;28;20394;-75
2022/01/25 10:25:46;;;;;;;35.53;26.63;;;2.60;99.90;;;;;;5021466;28;20083;-75
2022/01/25 10:28:13;;;;;;;36.08;27.05;;;2.50;99.90;;;;;;5018088;28;20030;-75
2022/01/25 10:30:53;;;;;;;32.42;25.63;;;2.40;99.90;;;;;;5019577;28;20030;-75
2022/01/25 10:33:35;;;;;;;34.53;26.38;;;2.30;99.90;;;;;;5018621;28;20028;-76
2022/01/25 10:36:13;;;;;;;32.58;25.23;;;2.10;99.90;;;;;;5016941;28;20030;-75
2022/01/25 10:38:41;;;;;;;34.67;25.27;;;2.40;99.90;;;;;;5020783;28;20044;-75
2022/01/25 10:41:10;;;;;;;33.50;24.95;;;2.30;99.90;;;;;;5014821;28;20030;-75
2022/01/25 10:43:37;;;;;;;40.38;28.40;;;2.50;99.90;;;;;;5019576;28;20022;-75
2022/01/25 10:46:22;;;;;;;37.50;26.52;;;2.50;99.90;;;;;;5023527;28;20709;-75
2022/01/25 10:48:53;;;;;;;37.75;27.27;;;2.40;99.90;;;;;;5023448;28;20025;-75
2022/01/25 10:51:28;;;;;;;36.35;27.27;;;2.10;99.90;;;;;;5019466;28;20032;-75
2022/01/25 10:54:10;;;;;;;32.80;25.88;;;2.20;99.90;;;;;;5017900;28;20048;-75
2022/01/25 10:56:59;;;;;;;39.40;29.02;;;2.40;99.90;;;;;;5041464;28;20112;-75
2022/01/25 10:59:32;;;;;;;39.17;27.52;;;2.30;99.90;;;;;;5043189;28;20049;-75
2022/01/25 11:02:00;;;;;;;37.85;26.90;;;2.10;99.90;;;;;;5041039;28;20495;-76
2022/01/25 11:04:31;;;;;;;37.97;26.67;;;2.40;99.90;;;;;;5038375;28;20018;-75
2022/01/25 11:07:03;;;;;;;36.58;26.20;;;2.50;99.90;;;;;;5035661;28;20025;-75
2022/01/25 11:09:37;;;;;;;35.55;25.70;;;2.50;99.90;;;;;;5045916;28;20424;-75
2022/01/25 11:12:05;;;;;;;36.42;27.17;;;2.40;99.90;;;;;;5043699;28;20021;-76
2022/01/25 11:17:15;;;;;;;39.42;28.65;;;2.50;99.90;;;;;;5041192;28;20082;-75
2022/01/25 11:19:41;;;;;;;37.97;27.80;;;2.40;99.90;;;;;;5040427;28;20033;-76
2022/01/25 11:22:12;;;;;;;42.78;30.42;;;2.10;99.90;;;;;;5042171;28;20438;-75
2022/01/25 11:24:39;;;;;;;42.45;29.50;;;2.00;99.90;;;;;;5032908;28;20064;-75
2022/01/25 11:27:07;;;;;;;45.88;31.52;;;1.90;99.90;;;;;;5045914;28;20060;-76
2022/01/25 11:29:39;;;;;;;47.45;31.25;;;1.90;99.90;;;;;;5046461;28;20391;-75
2022/01/25 11:32:12;;;;;;;52.58;33.90;;;1.80;99.90;;;;;;5043883;28;20430;-75
2022/01/25 11:34:40;;;;;;;46.92;32.00;;;1.60;99.90;;;;;;5044557;28;20025;-75
2022/01/25 11:37:07;;;;;;;53.72;33.65;;;1.60;99.90;;;;;;5048363;28;20056;-76
2022/01/25 11:39:34;;;;;;;51.65;34.30;;;1.60;99.90;;;;;;5047779;28;20037;-75
2022/01/25 11:42:05;;;;;;;50.95;33.72;;;1.70;99.90;;;;;;5048436;28;20025;-75
2022/01/25 11:44:32;;;;;;;50.83;34.75;;;1.70;99.90;;;;;;5041454;28;20052;-76
2022/01/25 11:47:06;;;;;;;49.78;32.63;;;1.70;99.90;;;;;;5033673;28;20076;-75
2022/01/25 11:49:33;;;;;;;48.45;32.85;;;1.90;99.90;;;;;;5038776;28;20048;-75
2022/01/25 11:52:15;;;;;;;58.05;36.05;;;2.10;99.90;;;;;;5044110;28;20151;-75
2022/01/25 11:54:42;;;;;;;63.60;36.00;;;1.90;99.90;;;;;;5046164;28;20021;-75
2022/01/25 11:57:15;;;;;;;56.65;36.17;;;1.80;99.90;;;;;;5044678;28;20033;-75
2022/01/25 11:59:48;;;;;;;56.67;34.45;;;1.80;99.90;;;;;;5045173;28;20021;-75
2022/01/25 12:02:45;;;;;;;56.45;36.42;;;1.80;99.90;;;;;;5043152;28;20017;-75
2022/01/25 12:05:14;;;;;;;53.55;34.65;;;1.90;99.90;;;;;;5042345;28;20029;-75
2022/01/25 12:08:00;;;;;;;53.65;35.83;;;2.20;99.90;;;;;;5041600;28;20049;-75
2022/01/25 12:10:30;;;;;;;57.22;35.03;;;2.20;99.90;;;;;;5043834;28;20057;-75
2022/01/25 12:13:27;;;;;;;56.10;35.53;;;2.20;99.90;;;;;;5044291;28;20031;-75
2022/01/25 12:16:11;;;;;;;;;;;2.10;99.90;;;;;;5044753;28;20108;-75
2022/01/25 12:18:52;;;;;;;54.45;34.17;;;2.20;99.90;;;;;;5034976;28;19905;-75
2022/01/25 12:21:53;;;;;;;54.90;34.45;;;2.20;99.90;;;;;;5035292;28;20025;-76
2022/01/25 12:24:37;;;;;;;53.95;34.88;;;2.00;99.90;;;;;;5034903;28;20019;-75
2022/01/25 12:27:13;;;;;;;57.67;35.90;;;2.00;99.90;;;;;;5040984;28;20468;-75
2022/01/25 12:29:40;;;;;;;;;;;1.80;99.90;;;;;;5042170;28;20025;-75
2022/01/25 12:32:23;;;;;;;62.25;37.13;;;1.90;99.90;;;;;;5020666;28;19905;-76
2022/01/25 12:34:56;;;;;;;57.20;38.10;;;2.00;99.90;;;;;;5019036;28;20087;-75
2022/01/25 12:37:43;;;;;;;63.47;41.67;;;2.10;99.90;;;;;;5017240;28;20408;-75
2022/01/25 12:40:40;;;;;;;60.88;38.28;;;2.10;99.90;;;;;;5031491;28;20057;-76
2022/01/25 12:43:16;;;;;;;53.08;35.95;;;2.10;99.90;;;;;;5020632;28;20044;-75
2022/01/25 12:45:47;;;;;;;53.55;33.95;;;2.10;99.90;;;;;;5019598;28;20091;-75
2022/01/25 12:48:16;;;;;;;52.65;33.58;;;2.20;99.90;;;;;;5032485;28;20033;-75
2022/01/25 12:50:45;;;;;;;58.55;36.70;;;2.00;99.90;;;;;;5019277;28;20419;-75
2022/01/25 12:53:14;;;;;;;56.13;36.25;;;1.80;99.90;;;;;;5030915;28;20056;-74
2022/01/25 12:55:43;;;;;;;59.70;38.55;;;1.80;99.90;;;;;;5017885;28;20087;-75
2022/01/25 12:58:09;;;;;;;62.17;40.50;;;1.90;99.90;;;;;;5032439;28;20507;-75
2022/01/25 13:00:45;;;;;;;57.55;39.83;;;1.90;99.90;;;;;;5032791;28;20095;-75
2022/01/25 13:03:11;;;;;;;63.40;41.25;;;2.00;99.90;;;;;;5036460;28;20176;-76
2022/01/25 13:05:56;;;;;;;54.75;37.70;;;2.10;99.90;;;;;;5035085;28;20033;-75
2022/01/25 13:11:37;;;;;;;52.72;34.20;;;2.00;99.90;;;;;;5030479;28;20440;-75
2022/01/25 13:16:46;;;;;;;53.00;34.83;;;1.80;99.90;;;;;;5038990;28;20021;-75
2022/01/25 13:19:14;;;;;;;53.60;33.55;;;1.70;99.90;;;;;;5030754;28;20032;-75
2022/01/25 13:21:57;;;;;;;58.10;36.00;;;1.70;99.90;;;;;;5019735;28;20030;-75
2022/01/25 13:24:29;;;;;;;60.50;37.13;;;1.70;99.90;;;;;;5026899;28;20026;-75
2022/01/25 13:27:01;;;;;;;59.83;37.15;;;1.70;99.90;;;;;;5036654;28;20053;-75
2022/01/25 13:32:28;;;;;;;62.90;36.25;;;1.60;99.90;;;;;;5029524;28;20033;-75
2022/01/25 13:35:27;;;;;;;67.03;38.95;;;1.70;99.90;;;;;;5025569;28;20025;-75
2022/01/25 13:38:12;;;;;;;60.28;38.55;;;1.70;99.90;;;;;;5035372;28;20091;-75
2022/01/25 13:40:50;;;;;;;63.70;36.97;;;1.60;99.90;;;;;;5030649;28;20029;-75
2022/01/25 13:45:57;;;;;;;70.60;41.92;;;1.50;99.90;;;;;;5029014;28;20026;-76
2022/01/25 13:48:26;;;;;;;64.20;40.25;;;1.30;99.90;;;;;;5029069;28;20036;-75
2022/01/25 13:50:54;;;;;;;63.17;39.60;;;1.30;99.90;;;;;;5026150;28;20033;-75
2022/01/25 13:53:20;;;;;;;66.30;39.88;;;1.50;99.90;;;;;;5009480;28;20502;-75
2022/01/25 13:55:51;;;;;;;60.25;39.38;;;1.50;99.90;;;;;;5011312;28;20277;-77
2022/01/25 13:58:23;;;;;;;65.40;39.17;;;1.50;99.90;;;;;;5013035;28;20034;-77
2022/01/25 14:00:50;;;;;;;69.88;40.85;;;1.40;99.90;;;;;;5018488;28;20025;-75
2022/01/25 14:03:16;;;;;;;66.13;40.33;;;1.50;99.90;;;;;;5032501;28;20400;-78
2022/01/25 14:05:42;;;;;;;68.15;39.67;;;1.60;99.90;;;;;;5032674;28;20032;-76
2022/01/25 14:08:08;;;;;;;62.05;38.85;;;1.60;99.90;;;;;;5029976;28;20032;-76
2022/01/25 14:10:34;;;;;;;64.75;38.92;;;1.60;99.90;;;;;;5029671;28;20025;-76
2022/01/25 14:24:18;;;;;;;67.90;40.75;;;1.20;99.90;;;;;;5013836;28;20029;-76
2022/01/25 14:26:44;;;;;;;67.75;40.88;;;1.30;99.90;;;;;;5030010;28;20383;-76
2022/01/25 14:29:17;;;;;;;73.90;42.80;;;1.50;99.90;;;;;;5029896;28;20049;-76
2022/01/25 14:31:46;;;;;;;64.90;38.80;;;1.40;99.90;;;;;;5031038;28;20025;-76
2022/01/25 14:34:14;;;;;;;71.85;41.80;;;1.40;99.90;;;;;;5033755;28;20079;-76
2022/01/25 14:36:43;;;;;;;76.75;43.75;;;1.50;99.90;;;;;;5035449;28;20029;-76
2022/01/25 14:39:09;;;;;;;67.60;41.47;;;1.30;99.90;;;;;;5035064;28;20033;-76
2022/01/25 14:41:37;;;;;;;67.55;40.50;;;1.30;99.90;;;;;;5025862;28;20037;-76